sensor_id;sensor_type;location;lat;lon;timestamp;pressure;altitude;pressure_sealevel;temperature;humidity
60055;BME280;45930;53.514;55.904;2023-02-03T00:00:51;49682.66;;;-149.77;51.82
60055;BME280;45930;53.514;55.904;2023-02-03T00:01:52;49682.66;;;-149.77;52.13
60055;BME280;45930;53.514;55.904;2023-02-03T00:02:53;49706.41;;;-149.77;52.14
60055;BME280;45930;53.514;55.904;2023-02-03T00:03:54;49670.75;;;-149.77;52.63
60055;BME280;45930;53.514;55.904;2023-02-03T00:04:55;49698.50;;;-149.77;53.18
60055;BME280;45930;53.514;55.904;2023-02-03T00:05:56;49639.06;;;-149.77;53.00
60055;BME280;45930;53.514;55.904;2023-02-03T00:06:56;49664.81;;;-149.77;52.94
60055;BME280;45930;53.514;55.904;2023-02-03T00:07:57;49702.47;;;-149.77;53.33
60055;BME280;45930;53.514;55.904;2023-02-03T00:08:58;49668.78;;;-149.77;53.30
60055;BME280;45930;53.514;55.904;2023-02-03T00:10:01;49684.63;;;-149.77;53.00
60055;BME280;45930;53.514;55.904;2023-02-03T00:11:04;49702.47;;;-149.77;53.37
60055;BME280;45930;53.514;55.904;2023-02-03T00:12:05;49660.84;;;-149.77;52.97
60055;BME280;45930;53.514;55.904;2023-02-03T00:13:07;49694.53;;;-149.77;53.21
60055;BME280;45930;53.514;55.904;2023-02-03T00:14:08;49662.84;;;-149.77;52.23
60055;BME280;45930;53.514;55.904;2023-02-03T00:15:09;49676.72;;;-149.77;52.47
60055;BME280;45930;53.514;55.904;2023-02-03T00:16:10;49668.78;;;-149.77;52.47
60055;BME280;45930;53.514;55.904;2023-02-03T00:17:10;49668.78;;;-149.77;52.60
60055;BME280;45930;53.514;55.904;2023-02-03T00:18:11;49700.47;;;-149.77;52.06
60055;BME280;45930;53.514;55.904;2023-02-03T00:19:12;49708.41;;;-149.77;52.07
60055;BME280;45930;53.514;55.904;2023-02-03T00:20:13;49710.38;;;-149.77;52.13
60055;BME280;45930;53.514;55.904;2023-02-03T00:21:14;49712.38;;;-149.77;52.18
60055;BME280;45930;53.514;55.904;2023-02-03T00:22:14;49674.72;;;-149.77;52.44
60055;BME280;45930;53.514;55.904;2023-02-03T00:23:15;49670.75;;;-149.77;52.72
60055;BME280;45930;53.514;55.904;2023-02-03T00:24:16;49698.50;;;-149.77;52.70
60055;BME280;45930;53.514;55.904;2023-02-03T00:25:20;49686.63;;;-149.77;52.58
60055;BME280;45930;53.514;55.904;2023-02-03T00:26:21;49702.47;;;-149.77;52.70
60055;BME280;45930;53.514;55.904;2023-02-03T00:27:21;49698.50;;;-149.77;52.30
60055;BME280;45930;53.514;55.904;2023-02-03T00:28:22;49694.53;;;-149.77;52.20
60055;BME280;45930;53.514;55.904;2023-02-03T00:29:23;49694.53;;;-149.77;52.27
60055;BME280;45930;53.514;55.904;2023-02-03T00:30:25;49714.34;;;-149.77;51.95
60055;BME280;45930;53.514;55.904;2023-02-03T00:31:26;49680.66;;;-149.77;51.58
60055;BME280;45930;53.514;55.904;2023-02-03T00:32:28;49686.63;;;-149.77;51.97
60055;BME280;45930;53.514;55.904;2023-02-03T00:33:29;49680.66;;;-149.77;52.13
60055;BME280;45930;53.514;55.904;2023-02-03T00:34:30;49702.47;;;-149.77;52.79
60055;BME280;45930;53.514;55.904;2023-02-03T00:35:31;49708.41;;;-149.77;53.67
60055;BME280;45930;53.514;55.904;2023-02-03T00:36:31;49708.41;;;-149.77;54.12
60055;BME280;45930;53.514;55.904;2023-02-03T00:37:32;49716.31;;;-149.77;54.58
60055;BME280;45930;53.514;55.904;2023-02-03T00:38:33;49678.69;;;-149.77;54.70
60055;BME280;45930;53.514;55.904;2023-02-03T00:39:36;49688.59;;;-149.77;53.90
60055;BME280;45930;53.514;55.904;2023-02-03T00:40:37;49710.38;;;-149.77;53.66
60055;BME280;45930;53.514;55.904;2023-02-03T00:41:38;49718.31;;;-149.77;53.20
60055;BME280;45930;53.514;55.904;2023-02-03T00:42:39;49708.41;;;-149.77;52.90
60055;BME280;45930;53.514;55.904;2023-02-03T00:43:39;49722.28;;;-149.77;52.63
60055;BME280;45930;53.514;55.904;2023-02-03T00:44:40;49720.28;;;-149.77;52.75
60055;BME280;45930;53.514;55.904;2023-02-03T00:45:41;49726.22;;;-149.77;53.00
60055;BME280;45930;53.514;55.904;2023-02-03T00:46:42;49722.28;;;-149.77;53.43
60055;BME280;45930;53.514;55.904;2023-02-03T00:47:42;49710.38;;;-149.77;54.00
60055;BME280;45930;53.514;55.904;2023-02-03T00:48:43;49704.44;;;-149.77;53.79
60055;BME280;45930;53.514;55.904;2023-02-03T00:49:44;49734.16;;;-149.77;53.28
60055;BME280;45930;53.514;55.904;2023-02-03T00:50:46;49718.31;;;-149.77;52.67
60055;BME280;45930;53.514;55.904;2023-02-03T00:51:47;49738.13;;;-149.77;52.34
60055;BME280;45930;53.514;55.904;2023-02-03T00:52:48;49748.03;;;-149.77;52.46
60055;BME280;45930;53.514;55.904;2023-02-03T00:53:49;49720.28;;;-149.77;52.03
60055;BME280;45930;53.514;55.904;2023-02-03T00:54:50;49738.13;;;-149.77;52.10
60055;BME280;45930;53.514;55.904;2023-02-03T00:55:51;49714.34;;;-149.77;52.10
60055;BME280;45930;53.514;55.904;2023-02-03T00:56:51;49738.13;;;-149.77;52.50
60055;BME280;45930;53.514;55.904;2023-02-03T00:57:52;49746.03;;;-149.77;52.38
60055;BME280;45930;53.514;55.904;2023-02-03T00:58:53;49704.44;;;-149.77;52.45
60055;BME280;45930;53.514;55.904;2023-02-03T00:59:53;49748.03;;;-149.77;52.14
60055;BME280;45930;53.514;55.904;2023-02-03T01:00:55;49748.03;;;-149.77;52.16
60055;BME280;45930;53.514;55.904;2023-02-03T01:01:56;49742.09;;;-149.77;51.99
60055;BME280;45930;53.514;55.904;2023-02-03T01:02:57;49702.47;;;-149.77;52.05
60055;BME280;45930;53.514;55.904;2023-02-03T01:03:58;49724.25;;;-149.77;51.86
60055;BME280;45930;53.514;55.904;2023-02-03T01:04:59;49748.03;;;-149.77;51.48
60055;BME280;45930;53.514;55.904;2023-02-03T01:06:11;49706.41;;;-149.77;51.48
60055;BME280;45930;53.514;55.904;2023-02-03T01:07:12;49761.88;;;-149.77;51.46
60055;BME280;45930;53.514;55.904;2023-02-03T01:08:13;49748.03;;;-149.77;51.27
60055;BME280;45930;53.514;55.904;2023-02-03T01:09:14;49716.31;;;-149.77;51.55
60055;BME280;45930;53.514;55.904;2023-02-03T01:10:15;49716.31;;;-149.77;51.63
60055;BME280;45930;53.514;55.904;2023-02-03T01:11:19;49714.34;;;-149.77;51.97
60055;BME280;45930;53.514;55.904;2023-02-03T01:12:20;49726.22;;;-149.77;52.10
60055;BME280;45930;53.514;55.904;2023-02-03T01:13:21;49720.28;;;-149.77;51.98
60055;BME280;45930;53.514;55.904;2023-02-03T01:14:21;49724.25;;;-149.77;52.24
60055;BME280;45930;53.514;55.904;2023-02-03T01:15:22;49712.38;;;-149.77;52.27
60055;BME280;45930;53.514;55.904;2023-02-03T01:16:23;49726.22;;;-149.77;52.19
60055;BME280;45930;53.514;55.904;2023-02-03T01:17:24;49716.31;;;-149.77;52.26
60055;BME280;45930;53.514;55.904;2023-02-03T01:18:25;49738.13;;;-149.77;52.03
60055;BME280;45930;53.514;55.904;2023-02-03T01:19:26;49726.22;;;-149.77;51.55
60055;BME280;45930;53.514;55.904;2023-02-03T01:20:27;49718.31;;;-149.77;51.70
60055;BME280;45930;53.514;55.904;2023-02-03T01:21:27;49730.19;;;-149.77;51.93
60055;BME280;45930;53.514;55.904;2023-02-03T01:22:29;49750.00;;;-149.77;51.70
60055;BME280;45930;53.514;55.904;2023-02-03T01:23:30;49736.13;;;-149.77;51.71
60055;BME280;45930;53.514;55.904;2023-02-03T01:24:30;49722.28;;;-149.77;51.65
60055;BME280;45930;53.514;55.904;2023-02-03T01:25:34;49734.16;;;-149.77;51.93
60055;BME280;45930;53.514;55.904;2023-02-03T01:26:35;49726.22;;;-149.77;51.67
60055;BME280;45930;53.514;55.904;2023-02-03T01:27:35;49700.47;;;-149.77;51.85
60055;BME280;45930;53.514;55.904;2023-02-03T01:28:37;49726.22;;;-149.77;51.50
60055;BME280;45930;53.514;55.904;2023-02-03T01:29:37;49724.25;;;-149.77;51.68
60055;BME280;45930;53.514;55.904;2023-02-03T01:30:38;49718.31;;;-149.77;51.58
60055;BME280;45930;53.514;55.904;2023-02-03T01:31:40;49728.22;;;-149.77;51.60
60055;BME280;45930;53.514;55.904;2023-02-03T01:32:41;49742.09;;;-149.77;51.78
60055;BME280;45930;53.514;55.904;2023-02-03T01:33:43;49746.03;;;-149.77;52.22
60055;BME280;45930;53.514;55.904;2023-02-03T01:34:47;49753.97;;;-149.77;52.35
60055;BME280;45930;53.514;55.904;2023-02-03T01:35:48;49724.25;;;-149.77;52.61
60055;BME280;45930;53.514;55.904;2023-02-03T01:36:49;49757.94;;;-149.77;52.33
60055;BME280;45930;53.514;55.904;2023-02-03T01:37:49;49757.94;;;-149.77;52.40
60055;BME280;45930;53.514;55.904;2023-02-03T01:38:50;49759.91;;;-149.77;50.76
60055;BME280;45930;53.514;55.904;2023-02-03T01:39:51;49753.97;;;-149.77;50.23
60055;BME280;45930;53.514;55.904;2023-02-03T01:40:52;49740.09;;;-149.77;50.90
60055;BME280;45930;53.514;55.904;2023-02-03T01:41:54;49742.09;;;-149.77;51.19
60055;BME280;45930;53.514;55.904;2023-02-03T01:42:55;49753.97;;;-149.77;51.48
60055;BME280;45930;53.514;55.904;2023-02-03T01:43:58;49736.13;;;-149.77;51.46
60055;BME280;45930;53.514;55.904;2023-02-03T01:44:59;49777.75;;;-149.77;51.05
60055;BME280;45930;53.514;55.904;2023-02-03T01:46:02;49765.84;;;-149.77;51.54
60055;BME280;45930;53.514;55.904;2023-02-03T01:47:35;49755.94;;;-149.77;50.58
60055;BME280;45930;53.514;55.904;2023-02-03T01:48:38;49767.84;;;-149.77;50.48
60055;BME280;45930;53.514;55.904;2023-02-03T01:49:42;49755.94;;;-149.77;50.36
60055;BME280;45930;53.514;55.904;2023-02-03T01:50:44;49775.75;;;-149.77;50.14
60055;BME280;45930;53.514;55.904;2023-02-03T01:51:45;49757.94;;;-149.77;50.34
60055;BME280;45930;53.514;55.904;2023-02-03T01:52:52;49757.94;;;-149.77;49.98
60055;BME280;45930;53.514;55.904;2023-02-03T01:53:54;49765.84;;;-149.77;49.82
60055;BME280;45930;53.514;55.904;2023-02-03T01:54:57;49746.03;;;-149.77;50.31
60055;BME280;45930;53.514;55.904;2023-02-03T01:56:00;49755.94;;;-149.77;49.88
60055;BME280;45930;53.514;55.904;2023-02-03T01:57:11;49765.84;;;-149.77;50.24
60055;BME280;45930;53.514;55.904;2023-02-03T01:58:31;49777.75;;;-149.77;50.41
60055;BME280;45930;53.514;55.904;2023-02-03T01:59:35;49765.84;;;-149.77;50.08
60055;BME280;45930;53.514;55.904;2023-02-03T02:00:36;49767.84;;;-149.77;50.11
60055;BME280;45930;53.514;55.904;2023-02-03T02:01:37;49761.88;;;-149.77;49.87
60055;BME280;45930;53.514;55.904;2023-02-03T02:02:39;49757.94;;;-149.77;50.28
60055;BME280;45930;53.514;55.904;2023-02-03T02:03:45;49781.69;;;-149.77;50.15
60055;BME280;45930;53.514;55.904;2023-02-03T02:06:13;49787.66;;;-149.77;50.82
60055;BME280;45930;53.514;55.904;2023-02-03T02:07:14;49755.94;;;-149.77;51.47
60055;BME280;45930;53.514;55.904;2023-02-03T02:08:17;49781.69;;;-149.77;52.03
60055;BME280;45930;53.514;55.904;2023-02-03T02:09:19;49795.56;;;-149.77;51.46
60055;BME280;45930;53.514;55.904;2023-02-03T02:10:20;49797.56;;;-149.77;52.35
60055;BME280;45930;53.514;55.904;2023-02-03T02:11:20;49797.56;;;-149.77;52.03
60055;BME280;45930;53.514;55.904;2023-02-03T02:12:21;49769.81;;;-149.77;51.81
60055;BME280;45930;53.514;55.904;2023-02-03T02:13:22;49757.94;;;-149.77;51.84
60055;BME280;45930;53.514;55.904;2023-02-03T02:14:24;49748.03;;;-149.77;52.15
60055;BME280;45930;53.514;55.904;2023-02-03T02:22:38;49777.75;;;-149.77;52.09
60055;BME280;45930;53.514;55.904;2023-02-03T02:25:20;49771.78;;;-149.77;52.16
60055;BME280;45930;53.514;55.904;2023-02-03T02:33:15;49793.59;;;-149.77;51.09
60055;BME280;45930;53.514;55.904;2023-02-03T02:36:09;49807.47;;;-149.77;51.33
60055;BME280;45930;53.514;55.904;2023-02-03T02:37:43;49781.69;;;-149.77;51.21
60055;BME280;45930;53.514;55.904;2023-02-03T02:42:29;49785.66;;;-149.77;50.44
60055;BME280;45930;53.514;55.904;2023-02-03T02:44:52;49757.94;;;-149.77;51.08
60055;BME280;45930;53.514;55.904;2023-02-03T02:46:02;49765.84;;;-149.77;51.87
60055;BME280;45930;53.514;55.904;2023-02-03T02:47:11;49791.59;;;-149.77;51.99
60055;BME280;45930;53.514;55.904;2023-02-03T02:50:31;49787.66;;;-149.77;52.63
60055;BME280;45930;53.514;55.904;2023-02-03T02:51:35;49777.75;;;-149.77;52.76
60055;BME280;45930;53.514;55.904;2023-02-03T02:52:40;49789.63;;;-149.77;52.38
60055;BME280;45930;53.514;55.904;2023-02-03T02:53:48;49771.78;;;-149.77;52.30
60055;BME280;45930;53.514;55.904;2023-02-03T02:54:53;49801.50;;;-149.77;52.34
60055;BME280;45930;53.514;55.904;2023-02-03T02:55:57;49807.47;;;-149.77;52.37
60055;BME280;45930;53.514;55.904;2023-02-03T02:57:02;49811.41;;;-149.77;52.82
60055;BME280;45930;53.514;55.904;2023-02-03T02:58:07;49781.69;;;-149.77;52.77
60055;BME280;45930;53.514;55.904;2023-02-03T02:59:09;49777.75;;;-149.77;52.39
60055;BME280;45930;53.514;55.904;2023-02-03T03:00:11;49785.66;;;-149.77;52.05
60055;BME280;45930;53.514;55.904;2023-02-03T03:01:12;49787.66;;;-149.77;52.06
60055;BME280;45930;53.514;55.904;2023-02-03T03:02:13;49801.50;;;-149.77;52.24
60055;BME280;45930;53.514;55.904;2023-02-03T03:03:21;49799.53;;;-149.77;52.77
60055;BME280;45930;53.514;55.904;2023-02-03T03:04:26;49819.34;;;-149.77;52.80
60055;BME280;45930;53.514;55.904;2023-02-03T03:05:27;49777.75;;;-149.77;52.43
60055;BME280;45930;53.514;55.904;2023-02-03T03:06:32;49757.94;;;-149.77;52.78
60055;BME280;45930;53.514;55.904;2023-02-03T03:07:40;49789.63;;;-149.77;51.80
60055;BME280;45930;53.514;55.904;2023-02-03T03:08:52;49817.34;;;-149.77;52.03
60055;BME280;45930;53.514;55.904;2023-02-03T03:09:59;49773.78;;;-149.77;51.31
60055;BME280;45930;53.514;55.904;2023-02-03T03:11:01;49797.56;;;-149.77;51.62
60055;BME280;45930;53.514;55.904;2023-02-03T03:12:07;49779.72;;;-149.77;51.38
60055;BME280;45930;53.514;55.904;2023-02-03T03:13:12;49789.63;;;-149.77;52.05
60055;BME280;45930;53.514;55.904;2023-02-03T03:14:18;49789.63;;;-149.77;52.20
60055;BME280;45930;53.514;55.904;2023-02-03T03:15:24;49769.81;;;-149.77;51.90
60055;BME280;45930;53.514;55.904;2023-02-03T03:16:28;49787.66;;;-149.77;51.85
60055;BME280;45930;53.514;55.904;2023-02-03T03:17:33;49781.69;;;-149.77;52.28
60055;BME280;45930;53.514;55.904;2023-02-03T03:18:42;49757.94;;;-149.77;52.08
60055;BME280;45930;53.514;55.904;2023-02-03T03:19:49;49781.69;;;-149.77;52.29
60055;BME280;45930;53.514;55.904;2023-02-03T03:20:55;49761.88;;;-149.77;52.66
60055;BME280;45930;53.514;55.904;2023-02-03T03:22:00;49757.94;;;-149.77;52.08
60055;BME280;45930;53.514;55.904;2023-02-03T03:23:05;49783.69;;;-149.77;51.90
60055;BME280;45930;53.514;55.904;2023-02-03T03:24:09;49769.81;;;-149.77;52.07
60055;BME280;45930;53.514;55.904;2023-02-03T03:25:16;49791.59;;;-149.77;52.21
60055;BME280;45930;53.514;55.904;2023-02-03T03:26:33;49769.81;;;-149.77;52.18
60055;BME280;45930;53.514;55.904;2023-02-03T03:27:39;49761.88;;;-149.77;51.15
60055;BME280;45930;53.514;55.904;2023-02-03T03:29:18;49807.47;;;-149.77;51.05
60055;BME280;45930;53.514;55.904;2023-02-03T03:30:23;49811.41;;;-149.77;50.73
60055;BME280;45930;53.514;55.904;2023-02-03T03:31:26;49759.91;;;-149.77;51.28
60055;BME280;45930;53.514;55.904;2023-02-03T03:32:27;49769.81;;;-149.77;50.54
60055;BME280;45930;53.514;55.904;2023-02-03T03:33:30;49765.84;;;-149.77;51.32
60055;BME280;45930;53.514;55.904;2023-02-03T03:34:31;49775.75;;;-149.77;51.10
60055;BME280;45930;53.514;55.904;2023-02-03T03:35:45;49799.53;;;-149.77;50.63
60055;BME280;45930;53.514;55.904;2023-02-03T03:37:12;49793.59;;;-149.77;50.85
60055;BME280;45930;53.514;55.904;2023-02-03T03:38:41;49807.47;;;-149.77;51.29
60055;BME280;45930;53.514;55.904;2023-02-03T03:39:50;49771.78;;;-149.77;50.65
60055;BME280;45930;53.514;55.904;2023-02-03T03:41:02;49783.69;;;-149.77;50.97
60055;BME280;45930;53.514;55.904;2023-02-03T03:43:20;49789.63;;;-149.77;50.56
60055;BME280;45930;53.514;55.904;2023-02-03T03:44:28;49779.72;;;-149.77;50.02
60055;BME280;45930;53.514;55.904;2023-02-03T03:45:34;49773.78;;;-149.77;50.53
60055;BME280;45930;53.514;55.904;2023-02-03T03:47:17;49777.75;;;-149.77;50.16
60055;BME280;45930;53.514;55.904;2023-02-03T03:48:25;49769.81;;;-149.77;50.38
60055;BME280;45930;53.514;55.904;2023-02-03T03:49:28;49783.69;;;-149.77;50.54
60055;BME280;45930;53.514;55.904;2023-02-03T03:50:33;49805.47;;;-149.77;50.48
60055;BME280;45930;53.514;55.904;2023-02-03T03:51:44;49799.53;;;-149.77;50.48
60055;BME280;45930;53.514;55.904;2023-02-03T03:52:47;49775.75;;;-149.77;50.33
60055;BME280;45930;53.514;55.904;2023-02-03T03:53:50;49795.56;;;-149.77;50.32
60055;BME280;45930;53.514;55.904;2023-02-03T03:54:52;49777.75;;;-149.77;50.39
60055;BME280;45930;53.514;55.904;2023-02-03T03:55:55;49761.88;;;-149.77;50.72
60055;BME280;45930;53.514;55.904;2023-02-03T03:57:09;49775.75;;;-149.77;50.38
60055;BME280;45930;53.514;55.904;2023-02-03T03:58:28;49799.53;;;-149.77;50.33
60055;BME280;45930;53.514;55.904;2023-02-03T03:59:31;49781.69;;;-149.77;50.08
60055;BME280;45930;53.514;55.904;2023-02-03T04:00:36;49763.88;;;-149.77;49.72
60055;BME280;45930;53.514;55.904;2023-02-03T04:01:38;49811.41;;;-149.77;49.35
60055;BME280;45930;53.514;55.904;2023-02-03T04:02:41;49797.56;;;-149.77;48.76
60055;BME280;45930;53.514;55.904;2023-02-03T04:03:47;49797.56;;;-149.77;48.36
60055;BME280;45930;53.514;55.904;2023-02-03T04:04:49;49823.31;;;-149.77;48.61
60055;BME280;45930;53.514;55.904;2023-02-03T04:05:50;49783.69;;;-149.77;48.60
60055;BME280;45930;53.514;55.904;2023-02-03T04:06:54;49797.56;;;-149.77;48.39
60055;BME280;45930;53.514;55.904;2023-02-03T04:07:55;49781.69;;;-149.77;48.82
60055;BME280;45930;53.514;55.904;2023-02-03T04:08:56;49793.59;;;-149.77;48.68
60055;BME280;45930;53.514;55.904;2023-02-03T04:09:56;49797.56;;;-149.77;48.33
60055;BME280;45930;53.514;55.904;2023-02-03T04:10:57;49829.25;;;-149.77;48.54
60055;BME280;45930;53.514;55.904;2023-02-03T04:11:58;49789.63;;;-149.77;49.11
60055;BME280;45930;53.514;55.904;2023-02-03T04:13:02;49779.72;;;-149.77;48.78
60055;BME280;45930;53.514;55.904;2023-02-03T04:14:03;49793.59;;;-149.77;48.66
60055;BME280;45930;53.514;55.904;2023-02-03T04:15:04;49765.84;;;-149.77;48.84
60055;BME280;45930;53.514;55.904;2023-02-03T04:16:05;49805.47;;;-149.77;48.41
60055;BME280;45930;53.514;55.904;2023-02-03T04:17:07;49783.69;;;-149.77;48.33
60055;BME280;45930;53.514;55.904;2023-02-03T04:18:10;49769.81;;;-149.77;48.80
60055;BME280;45930;53.514;55.904;2023-02-03T04:19:12;49801.50;;;-149.77;48.13
60055;BME280;45930;53.514;55.904;2023-02-03T04:20:14;49785.66;;;-149.77;48.38
60055;BME280;45930;53.514;55.904;2023-02-03T04:21:15;49821.31;;;-149.77;48.21
60055;BME280;45930;53.514;55.904;2023-02-03T04:22:15;49783.69;;;-149.77;48.04
60055;BME280;45930;53.514;55.904;2023-02-03T04:23:16;49809.44;;;-149.77;47.97
60055;BME280;45930;53.514;55.904;2023-02-03T04:24:17;49797.56;;;-149.77;48.48
60055;BME280;45930;53.514;55.904;2023-02-03T04:25:18;49781.69;;;-149.77;48.39
60055;BME280;45930;53.514;55.904;2023-02-03T04:26:18;49805.47;;;-149.77;48.81
60055;BME280;45930;53.514;55.904;2023-02-03T04:27:19;49795.56;;;-149.77;48.66
60055;BME280;45930;53.514;55.904;2023-02-03T04:28:20;49817.34;;;-149.77;48.91
60055;BME280;45930;53.514;55.904;2023-02-03T04:29:21;49841.13;;;-149.77;48.44
60055;BME280;45930;53.514;55.904;2023-02-03T04:30:22;49793.59;;;-149.77;48.91
60055;BME280;45930;53.514;55.904;2023-02-03T04:31:23;49759.91;;;-149.77;48.81
60055;BME280;45930;53.514;55.904;2023-02-03T04:32:24;49803.50;;;-149.77;49.07
60055;BME280;45930;53.514;55.904;2023-02-03T04:33:25;49775.75;;;-149.77;48.47
60055;BME280;45930;53.514;55.904;2023-02-03T04:34:25;49773.78;;;-149.77;49.22
60055;BME280;45930;53.514;55.904;2023-02-03T04:35:26;49793.59;;;-149.77;49.03
60055;BME280;45930;53.514;55.904;2023-02-03T04:36:27;49789.63;;;-149.77;49.15
60055;BME280;45930;53.514;55.904;2023-02-03T04:37:28;49819.34;;;-149.77;49.09
60055;BME280;45930;53.514;55.904;2023-02-03T04:38:28;49755.94;;;-149.77;48.35
60055;BME280;45930;53.514;55.904;2023-02-03T04:39:29;49771.78;;;-149.77;48.87
60055;BME280;45930;53.514;55.904;2023-02-03T04:40:30;49785.66;;;-149.77;48.20
60055;BME280;45930;53.514;55.904;2023-02-03T04:41:31;49777.75;;;-149.77;47.68
60055;BME280;45930;53.514;55.904;2023-02-03T04:42:31;49787.66;;;-149.77;47.56
60055;BME280;45930;53.514;55.904;2023-02-03T04:43:32;49787.66;;;-149.77;47.54
60055;BME280;45930;53.514;55.904;2023-02-03T04:44:33;49805.47;;;-149.77;47.89
60055;BME280;45930;53.514;55.904;2023-02-03T04:45:34;49793.59;;;-149.77;47.97
60055;BME280;45930;53.514;55.904;2023-02-03T04:46:34;49785.66;;;-149.77;48.31
60055;BME280;45930;53.514;55.904;2023-02-03T04:47:35;49761.88;;;-149.77;48.16
60055;BME280;45930;53.514;55.904;2023-02-03T04:48:36;49797.56;;;-149.77;48.15
60055;BME280;45930;53.514;55.904;2023-02-03T04:49:37;49781.69;;;-149.77;47.66
60055;BME280;45930;53.514;55.904;2023-02-03T04:50:38;49781.69;;;-149.77;47.80
60055;BME280;45930;53.514;55.904;2023-02-03T04:51:39;49753.97;;;-149.77;47.73
60055;BME280;45930;53.514;55.904;2023-02-03T04:52:39;49789.63;;;-149.77;47.66
60055;BME280;45930;53.514;55.904;2023-02-03T04:53:40;49791.59;;;-149.77;48.01
60055;BME280;45930;53.514;55.904;2023-02-03T04:54:41;49787.66;;;-149.77;48.11
60055;BME280;45930;53.514;55.904;2023-02-03T04:55:46;49803.50;;;-149.77;47.87
60055;BME280;45930;53.514;55.904;2023-02-03T04:56:47;49769.81;;;-149.77;47.79
60055;BME280;45930;53.514;55.904;2023-02-03T04:57:48;49781.69;;;-149.77;47.89
60055;BME280;45930;53.514;55.904;2023-02-03T04:58:48;49765.84;;;-149.77;48.29
60055;BME280;45930;53.514;55.904;2023-02-03T04:59:49;49769.81;;;-149.77;48.37
60055;BME280;45930;53.514;55.904;2023-02-03T05:00:50;49779.72;;;-149.77;48.18
60055;BME280;45930;53.514;55.904;2023-02-03T05:01:51;49779.72;;;-149.77;48.44
60055;BME280;45930;53.514;55.904;2023-02-03T05:02:52;49791.59;;;-149.77;48.29
60055;BME280;45930;53.514;55.904;2023-02-03T05:03:53;49801.50;;;-149.77;48.46
60055;BME280;45930;53.514;55.904;2023-02-03T05:04:53;49797.56;;;-149.77;48.81
60055;BME280;45930;53.514;55.904;2023-02-03T05:05:55;49801.50;;;-149.77;48.95
60055;BME280;45930;53.514;55.904;2023-02-03T05:06:56;49783.69;;;-149.77;49.41
60055;BME280;45930;53.514;55.904;2023-02-03T05:07:57;49785.66;;;-149.77;48.63
60055;BME280;45930;53.514;55.904;2023-02-03T05:08:58;49779.72;;;-149.77;49.08
60055;BME280;45930;53.514;55.904;2023-02-03T05:09:58;49771.78;;;-149.77;48.72
60055;BME280;45930;53.514;55.904;2023-02-03T05:10:59;49819.34;;;-149.77;48.37
60055;BME280;45930;53.514;55.904;2023-02-03T05:12:00;49809.44;;;-149.77;48.61
60055;BME280;45930;53.514;55.904;2023-02-03T05:13:01;49785.66;;;-149.77;49.10
60055;BME280;45930;53.514;55.904;2023-02-03T05:14:03;49775.75;;;-149.77;48.37
60055;BME280;45930;53.514;55.904;2023-02-03T05:15:05;49783.69;;;-149.77;48.72
60055;BME280;45930;53.514;55.904;2023-02-03T05:16:06;49793.59;;;-149.77;49.01
60055;BME280;45930;53.514;55.904;2023-02-03T05:17:09;49793.59;;;-149.77;48.46
60055;BME280;45930;53.514;55.904;2023-02-03T05:18:10;49775.75;;;-149.77;48.81
60055;BME280;45930;53.514;55.904;2023-02-03T05:19:10;49781.69;;;-149.77;48.74
60055;BME280;45930;53.514;55.904;2023-02-03T05:20:11;49773.78;;;-149.77;48.89
60055;BME280;45930;53.514;55.904;2023-02-03T05:21:12;49765.84;;;-149.77;48.97
60055;BME280;45930;53.514;55.904;2023-02-03T05:22:13;49801.50;;;-149.77;48.83
60055;BME280;45930;53.514;55.904;2023-02-03T05:23:14;49765.84;;;-149.77;48.64
60055;BME280;45930;53.514;55.904;2023-02-03T05:24:14;49769.81;;;-149.77;48.68
60055;BME280;45930;53.514;55.904;2023-02-03T05:25:15;49783.69;;;-149.77;49.00
60055;BME280;45930;53.514;55.904;2023-02-03T05:26:16;49738.13;;;-149.77;49.47
60055;BME280;45930;53.514;55.904;2023-02-03T05:27:17;49775.75;;;-149.77;49.29
60055;BME280;45930;53.514;55.904;2023-02-03T05:28:17;49753.97;;;-149.77;49.43
60055;BME280;45930;53.514;55.904;2023-02-03T05:29:21;49775.75;;;-149.77;49.24
60055;BME280;45930;53.514;55.904;2023-02-03T05:30:22;49744.06;;;-149.77;49.48
60055;BME280;45930;53.514;55.904;2023-02-03T05:31:23;49742.09;;;-149.77;48.98
60055;BME280;45930;53.514;55.904;2023-02-03T05:32:24;49702.47;;;-149.77;49.53
60055;BME280;45930;53.514;55.904;2023-02-03T05:33:28;49734.16;;;-149.77;48.99
60055;BME280;45930;53.514;55.904;2023-02-03T05:34:32;49728.22;;;-149.77;48.69
60055;BME280;45930;53.514;55.904;2023-02-03T05:35:33;49769.81;;;-149.77;48.29
60055;BME280;45930;53.514;55.904;2023-02-03T05:36:33;49769.81;;;-149.77;48.34
60055;BME280;45930;53.514;55.904;2023-02-03T05:37:34;49753.97;;;-149.77;48.83
60055;BME280;45930;53.514;55.904;2023-02-03T05:38:35;49736.13;;;-149.77;47.87
60055;BME280;45930;53.514;55.904;2023-02-03T05:39:36;49722.28;;;-149.77;47.79
60055;BME280;45930;53.514;55.904;2023-02-03T05:40:37;49742.09;;;-149.77;47.61
60055;BME280;45930;53.514;55.904;2023-02-03T05:41:56;49720.28;;;-149.77;48.22
60055;BME280;45930;53.514;55.904;2023-02-03T05:42:57;49714.34;;;-149.77;47.76
60055;BME280;45930;53.514;55.904;2023-02-03T05:43:58;49730.19;;;-149.77;48.34
60055;BME280;45930;53.514;55.904;2023-02-03T05:44:58;49750.00;;;-149.77;48.50
60055;BME280;45930;53.514;55.904;2023-02-03T05:46:00;49706.41;;;-149.77;48.56
60055;BME280;45930;53.514;55.904;2023-02-03T05:47:01;49714.34;;;-149.77;48.49
60055;BME280;45930;53.514;55.904;2023-02-03T05:48:02;49730.19;;;-149.77;48.39
60055;BME280;45930;53.514;55.904;2023-02-03T05:49:03;49724.25;;;-149.77;47.35